Time;durP1;ratioP1;P1;durP2;ratioP2;P2;SDS_P1;SDS_P2;PMS_P1;PMS_P2;Temp;Humidity;BMP_temperature;BMP_pressure;BME280_temperature;BME280_humidity;BME280_pressure;Samples;Min_cycle;Max_cycle;Signal;HPM_P1;HPM_P2
2022/05/24 00:00:03;;;;;;;4.05;2.70;;;;;;;25.86;54.34;99728.16;5022583;28;20052;-71
2022/05/24 00:02:29;;;;;;;4.65;2.47;;;;;;;25.84;54.50;99740.16;5021825;28;20140;-71
2022/05/24 00:04:54;;;;;;;4.50;2.45;;;;;;;25.85;54.34;99736.44;5029039;28;20029;-73
2022/05/24 00:07:20;;;;;;;2.25;1.88;;;;;;;25.86;54.28;99746.03;5027201;28;20036;-70
2022/05/24 00:09:45;;;;;;;3.72;2.67;;;;;;;25.86;54.21;99741.50;5027470;28;20099;-71
2022/05/24 00:12:10;;;;;;;8.93;3.22;;;;;;;25.89;54.34;99750.84;5025426;28;20560;-71
2022/05/24 00:17:20;;;;;;;4.95;2.53;;;;;;;25.89;54.12;99750.84;5028955;28;20056;-71
2022/05/24 00:19:46;;;;;;;6.47;2.88;;;;;;;25.90;54.53;99739.91;5027999;28;20034;-71
2022/05/24 00:22:11;;;;;;;6.78;3.08;;;;;;;25.87;54.56;99734.31;5029415;28;20561;-71
2022/05/24 00:24:37;;;;;;;5.18;2.75;;;;;;;25.85;54.71;99731.91;5024829;28;20025;-71
2022/05/24 00:27:03;;;;;;;3.90;2.28;;;;;;;25.86;54.71;99725.50;5025374;28;20025;-72
2022/05/24 00:29:28;;;;;;;3.22;2.20;;;;;;;25.88;54.72;99717.22;5028690;28;20029;-72
2022/05/24 00:31:54;;;;;;;2.58;2.35;;;;;;;25.90;54.62;99712.44;5027196;28;20362;-71
2022/05/24 00:34:19;;;;;;;5.22;2.80;;;;;;;25.90;54.63;99707.09;5026782;28;20033;-73
2022/05/24 00:36:44;;;;;;;3.80;2.47;;;;;;;25.90;54.61;99707.09;5025604;28;20647;-72
2022/05/24 00:39:10;;;;;;;3.38;2.28;;;;;;;25.89;54.60;99706.28;5025188;28;20103;-72
2022/05/24 00:41:40;;;;;;;3.00;1.80;;;;;;;25.88;54.49;99699.34;5027577;28;20025;-74
2022/05/24 00:44:09;;;;;;;3.97;2.35;;;;;;;25.89;54.41;99695.63;5025682;28;20037;-73
2022/05/24 00:46:40;;;;;;;4.50;2.40;;;;;;;25.89;54.10;99700.94;5024481;28;20108;-73
2022/05/24 00:49:14;;;;;;;2.53;1.88;;;;;;;25.87;53.97;99692.41;5027532;28;20036;-74
2022/05/24 00:51:49;;;;;;;3.53;1.95;;;;;;;25.86;53.72;99704.16;5023968;28;20079;-73
2022/05/24 00:54:15;;;;;;;3.33;2.00;;;;;;;25.85;53.72;99705.22;5030276;28;20491;-73
2022/05/24 00:56:53;;;;;;;3.25;2.22;;;;;;;25.84;53.70;99713.47;5023245;28;20406;-71
2022/05/24 00:59:26;;;;;;;4.10;1.80;;;;;;;25.84;53.55;99708.16;5027752;28;20397;-73
2022/05/24 01:01:51;;;;;;;2.72;2.20;;;;;;;25.85;53.57;99720.41;5027488;28;20025;-72
2022/05/24 01:04:19;;;;;;;2.25;2.03;;;;;;;25.85;53.38;99721.22;5028282;28;20532;-73
2022/05/24 01:06:46;;;;;;;2.53;1.88;;;;;;;25.85;53.47;99715.88;5024570;28;20576;-73
2022/05/24 01:09:34;;;;;;;3.55;1.90;;;;;;;25.82;53.34;99716.41;5024956;28;20022;-72
2022/05/24 01:12:25;;;;;;;3.65;2.35;;;;;;;25.82;53.40;99713.75;5022269;28;20033;-71
2022/05/24 01:14:55;;;;;;;2.42;1.63;;;;;;;25.79;53.53;99717.72;5024660;28;20131;-73
2022/05/24 01:17:21;;;;;;;3.42;1.90;;;;;;;25.79;53.55;99720.41;5025555;28;20035;-72
2022/05/24 01:19:48;;;;;;;6.15;2.42;;;;;;;25.76;53.33;99707.59;5026307;28;20440;-72
2022/05/24 01:22:28;;;;;;;5.25;1.88;;;;;;;25.72;53.38;99708.38;5027058;28;20033;-71
2022/05/24 01:24:59;;;;;;;3.08;2.20;;;;;;;25.72;53.31;99708.38;5025880;28;20104;-72
2022/05/24 01:27:25;;;;;;;3.78;2.20;;;;;;;25.70;53.23;99707.81;5026126;28;20033;-73
2022/05/24 01:29:50;;;;;;;6.85;2.00;;;;;;;25.68;53.27;99700.09;5026066;28;20404;-72
2022/05/24 01:37:44;;;;;;;5.40;1.95;;;;;;;25.74;53.26;99695.56;5021974;28;20052;-72
2022/05/24 01:40:09;;;;;;;2.33;1.70;;;;;;;25.77;53.11;99703.84;5026972;28;20021;-71
2022/05/24 01:42:35;;;;;;;2.10;1.90;;;;;;;25.79;53.10;99703.59;5025179;28;20025;-70
2022/05/24 01:45:12;;;;;;;3.22;1.73;;;;;;;25.82;52.83;99708.41;5023943;28;21008;-72
2022/05/24 01:47:42;;;;;;;2.70;1.58;;;;;;;25.84;52.82;99702.81;5028660;28;20099;-72
2022/05/24 01:50:11;;;;;;;2.58;1.75;;;;;;;25.85;53.12;99699.06;5023893;28;20029;-73
2022/05/24 01:52:48;;;;;;;3.63;1.70;;;;;;;25.86;52.90;99706.00;5026446;28;20037;-71
2022/05/24 01:55:19;;;;;;;3.10;1.55;;;;;;;25.88;52.69;99696.69;5037716;28;20034;-71
2022/05/24 01:57:48;;;;;;;1.85;1.33;;;;;;;25.90;52.68;99702.56;5026306;28;20121;-73
2022/05/24 02:00:15;;;;;;;2.65;1.42;;;;;;;25.91;52.71;99704.16;5026438;28;20034;-71
2022/05/24 02:02:42;;;;;;;2.40;1.60;;;;;;;25.90;52.50;99702.56;5027653;28;20456;-71
2022/05/24 02:05:08;;;;;;;2.00;1.40;;;;;;;25.90;52.48;99697.22;5026112;28;20041;-71
2022/05/24 02:07:34;;;;;;;2.80;1.30;;;;;;;25.90;52.36;99699.88;5023804;28;20037;-72
2022/05/24 02:10:00;;;;;;;3.03;1.00;;;;;;;25.89;52.22;99700.94;5023897;28;20037;-73
2022/05/24 02:12:33;;;;;;;2.83;1.02;;;;;;;25.88;52.10;99702.03;5022585;28;20105;-72
2022/05/24 02:15:01;;;;;;;2.05;1.65;;;;;;;25.88;52.17;99704.69;5019539;28;20037;-73
2022/05/24 02:17:31;;;;;;;2.53;1.30;;;;;;;25.86;52.12;99696.13;5026168;28;20481;-74
2022/05/24 02:20:00;;;;;;;3.72;1.65;;;;;;;25.84;51.57;99684.94;5023609;28;20061;-74
2022/05/24 02:22:28;;;;;;;2.88;2.15;;;;;;;25.79;51.49;99693.72;5023391;28;20064;-71
2022/05/24 02:25:01;;;;;;;1.48;0.98;;;;;;;25.80;51.57;99683.84;5024545;28;20021;-75
2022/05/24 02:27:27;;;;;;;2.63;1.70;;;;;;;25.81;51.45;99684.66;5026891;28;20025;-73
2022/05/24 02:29:53;;;;;;;5.78;1.17;;;;;;;25.77;51.52;99685.19;5024043;28;20053;-74
2022/05/24 02:32:19;;;;;;;2.30;1.50;;;;;;;25.77;51.43;99684.38;5025064;28;20057;-74
2022/05/24 02:34:44;;;;;;;1.45;1.10;;;;;;;25.78;51.43;99688.66;5024579;28;20033;-75
2022/05/24 02:37:10;;;;;;;2.40;1.30;;;;;;;25.78;51.64;99681.44;5025772;28;20037;-72
2022/05/24 02:41:28;;;;;;;2.78;1.45;;;;;;;25.79;51.51;99675.03;5026627;28;20029;-74
2022/05/24 02:42:21;;;;;;;3.28;1.30;;;;;;;25.79;51.70;99674.25;5026342;28;20045;-73
2022/05/24 02:44:47;;;;;;;3.78;1.65;;;;;;;25.79;51.46;99674.25;5023063;28;20025;-72
2022/05/24 02:47:12;;;;;;;2.35;1.75;;;;;;;25.79;51.34;99684.91;5028494;28;20128;-71
2022/05/24 02:49:38;;;;;;;4.60;1.83;;;;;;;25.77;51.62;99684.38;5025874;28;20029;-71
2022/05/24 02:52:03;;;;;;;2.80;1.45;;;;;;;25.79;51.53;99680.38;5326068;22;20387;-71
2022/05/24 02:54:30;;;;;;;1.92;1.38;;;;;;;25.79;51.51;99683.03;5053911;22;20139;-71
2022/05/24 02:56:55;;;;;;;5.30;1.60;;;;;;;25.81;51.55;99680.13;5048027;28;20032;-72
2022/05/24 02:59:21;;;;;;;1.15;0.93;;;;;;;25.82;51.35;99684.38;5047934;28;20092;-70
2022/05/24 03:01:46;;;;;;;1.77;1.27;;;;;;;25.82;51.44;99681.72;5048415;28;20036;-71
2022/05/24 03:04:12;;;;;;;6.53;1.40;;;;;;;25.82;51.38;99683.59;5048138;28;20362;-71
2022/05/24 03:09:36;;;;;;;5.65;1.48;;;;;;;25.81;51.34;99676.66;5048367;28;20104;-73
2022/05/24 03:14:53;;;;;;;2.83;1.70;;;;;;;25.76;51.12;99672.09;5047954;28;20040;-72
2022/05/24 03:17:20;;;;;;;2.97;1.40;;;;;;;25.77;51.30;99671.84;5047689;28;20035;-71
2022/05/24 03:19:47;;;;;;;3.75;1.20;;;;;;;25.78;51.22;99672.63;5048115;28;20036;-72
2022/05/24 03:22:13;;;;;;;2.90;1.48;;;;;;;25.78;51.09;99678.78;5047804;28;20029;-71
2022/05/24 03:24:40;;;;;;;4.45;1.60;;;;;;;25.79;51.07;99683.03;5047872;28;20040;-72
2022/05/24 03:27:11;;;;;;;2.10;1.55;;;;;;;25.80;50.94;99683.84;5047825;28;20499;-73
2022/05/24 03:29:38;;;;;;;3.47;1.55;;;;;;;25.80;51.04;99681.19;5048032;28;20435;-72
2022/05/24 03:32:05;;;;;;;1.83;1.42;;;;;;;25.80;50.92;99681.19;5047901;28;20036;-72
2022/05/24 03:34:30;;;;;;;3.38;1.38;;;;;;;25.80;50.76;99681.19;5047604;28;20025;-72
2022/05/24 03:36:55;;;;;;;2.33;1.65;;;;;;;25.77;50.57;99681.72;5047845;28;20036;-72
2022/05/24 03:39:21;;;;;;;4.00;1.50;;;;;;;25.75;50.67;99694.50;5054526;28;20436;-73
2022/05/24 03:41:47;;;;;;;5.03;1.92;;;;;;;25.75;50.55;99681.97;5054315;28;20025;-71
2022/05/24 03:44:12;;;;;;;3.15;1.60;;;;;;;25.77;50.57;99684.38;5054519;28;20028;-70
2022/05/24 03:46:38;;;;;;;2.00;1.25;;;;;;;25.77;50.61;99684.38;5054264;28;20056;-72
2022/05/24 03:49:04;;;;;;;5.35;1.80;;;;;;;25.76;50.54;99677.44;5054116;28;20025;-72
2022/05/24 03:51:30;;;;;;;4.95;1.50;;;;;;;25.76;50.59;99680.09;5054187;28;20036;-71
2022/05/24 03:53:56;;;;;;;4.72;1.63;;;;;;;25.74;50.49;99682.22;5054146;28;20052;-73
2022/05/24 03:56:22;;;;;;;1.65;1.50;;;;;;;25.73;50.59;99685.97;5054435;28;20036;-72
2022/05/24 03:58:47;;;;;;;1.83;1.35;;;;;;;25.74;50.84;99676.91;5054235;28;20032;-72
2022/05/24 04:01:13;;;;;;;1.70;1.20;;;;;;;25.75;51.04;99678.50;5054299;28;20193;-71
2022/05/24 04:03:38;;;;;;;3.42;1.42;;;;;;;25.75;50.92;99678.50;5054152;28;20036;-73
2022/05/24 04:06:04;;;;;;;5.30;1.23;;;;;;;25.76;50.93;99677.44;5054465;28;20399;-71
2022/05/24 04:08:29;;;;;;;1.83;1.40;;;;;;;25.76;51.00;99675.56;5054106;28;20021;-71
2022/05/24 04:11:04;;;;;;;2.78;1.30;;;;;;;25.75;51.12;99678.50;5054160;28;20029;-71
2022/05/24 04:13:31;;;;;;;3.72;1.75;;;;;;;25.74;51.08;99677.69;5054275;28;20440;-70
2022/05/24 04:15:56;;;;;;;2.70;1.25;;;;;;;25.76;51.05;99685.44;5053941;28;20124;-70
2022/05/24 04:18:22;;;;;;;2.72;1.10;;;;;;;25.76;51.27;99686.25;5052433;28;20104;-70
2022/05/24 04:20:47;;;;;;;3.90;1.40;;;;;;;25.77;51.13;99697.72;5054067;28;20357;-70
2022/05/24 04:23:14;;;;;;;1.60;1.25;;;;;;;25.76;51.19;99701.44;5054187;28;20033;-70
2022/05/24 04:25:40;;;;;;;2.60;1.65;;;;;;;25.76;51.40;99706.78;5054038;28;20033;-69
2022/05/24 04:28:05;;;;;;;3.05;1.60;;;;;;;25.76;51.26;99706.78;5054072;28;20039;-72
2022/05/24 04:30:32;;;;;;;3.10;1.52;;;;;;;25.76;51.32;99707.59;5053819;28;20274;-70
2022/05/24 04:32:57;;;;;;;1.75;1.35;;;;;;;25.76;51.30;99712.13;5053762;28;20024;-72
2022/05/24 04:35:23;;;;;;;2.20;1.80;;;;;;;25.75;51.32;99711.31;5052522;28;20186;-73
2022/05/24 04:37:48;;;;;;;2.72;1.35;;;;;;;25.72;51.46;99719.84;5054033;28;20464;-71
2022/05/24 04:40:14;;;;;;;2.97;1.52;;;;;;;25.72;51.58;99714.50;5054058;28;20033;-72
2022/05/24 04:42:40;;;;;;;2.83;1.55;;;;;;;25.70;51.64;99721.16;5053958;28;20064;-72
2022/05/24 04:45:09;;;;;;;3.83;1.48;;;;;;;25.68;51.46;99721.44;5053898;28;20029;-70
2022/05/24 04:47:35;;;;;;;3.63;1.70;;;;;;;25.68;51.73;99729.44;5053601;28;20043;-72
2022/05/24 04:50:05;;;;;;;4.20;1.98;;;;;;;25.68;51.70;99720.63;5050969;28;20412;-71
2022/05/24 04:52:34;;;;;;;2.88;1.65;;;;;;;25.68;51.89;99731.28;5050435;28;20036;-72
2022/05/24 04:54:59;;;;;;;4.97;1.85;;;;;;;25.69;52.00;99730.22;5050526;28;20057;-72
2022/05/24 04:57:25;;;;;;;5.03;1.60;;;;;;;25.68;52.05;99715.28;5050573;28;20083;-71
2022/05/24 04:59:51;;;;;;;1.58;1.48;;;;;;;25.67;52.05;99713.69;5050671;28;20029;-73
2022/05/24 05:02:18;;;;;;;2.55;1.80;;;;;;;25.69;52.14;99706.22;5044136;28;20052;-72
2022/05/24 05:04:43;;;;;;;3.92;1.40;;;;;;;25.71;52.05;99717.44;5050515;28;20033;-70
2022/05/24 05:07:09;;;;;;;2.92;1.80;;;;;;;25.72;52.03;99722.50;5046293;28;20029;-72
2022/05/24 05:09:35;;;;;;;2.42;1.65;;;;;;;25.74;51.98;99725.72;5050112;28;20068;-72
2022/05/24 05:12:06;;;;;;;3.28;1.58;;;;;;;25.74;51.97;99727.59;5045772;28;20037;-73
2022/05/24 05:14:32;;;;;;;2.92;1.50;;;;;;;25.77;51.88;99735.06;5049234;28;20041;-73
2022/05/24 05:16:58;;;;;;;2.38;1.58;;;;;;;25.78;52.10;99732.13;5047705;28;20033;-73
2022/05/24 05:19:24;;;;;;;2.15;1.67;;;;;;;25.77;51.83;99735.88;5048775;28;20028;-72
2022/05/24 05:21:50;;;;;;;2.88;2.25;;;;;;;25.78;51.93;99734.00;5047120;28;20075;-72
2022/05/24 05:24:16;;;;;;;2.65;1.50;;;;;;;25.75;51.90;99746.00;5050197;28;20238;-72
2022/05/24 05:26:41;;;;;;;3.92;1.73;;;;;;;25.75;51.90;99739.84;5048579;28;20123;-71
2022/05/24 05:29:06;;;;;;;3.03;1.67;;;;;;;25.74;52.22;99746.25;5048667;28;20032;-73
2022/05/24 05:31:32;;;;;;;3.13;1.60;;;;;;;25.72;52.02;99737.72;5047921;28;20064;-73
2022/05/24 05:34:00;;;;;;;3.00;1.70;;;;;;;25.72;52.06;99740.38;5047531;28;20028;-72
2022/05/24 05:36:27;;;;;;;6.32;1.90;;;;;;;25.67;52.21;99735.03;5046632;28;20029;-73
2022/05/24 05:38:53;;;;;;;1.58;1.05;;;;;;;25.66;52.44;99744.09;5047993;28;20555;-73
2022/05/24 05:41:26;;;;;;;3.75;1.35;;;;;;;25.65;52.32;99731.81;5048891;28;20566;-71
2022/05/24 05:43:52;;;;;;;1.90;1.65;;;;;;;25.65;52.24;99735.28;5047338;28;20077;-70
2022/05/24 05:46:18;;;;;;;2.08;1.73;;;;;;;25.66;52.24;99739.56;5047967;28;20122;-70
2022/05/24 05:48:44;;;;;;;3.00;1.77;;;;;;;25.67;52.11;99740.34;5047362;28;20037;-73
2022/05/24 05:51:11;;;;;;;3.72;2.17;;;;;;;25.67;52.27;99746.50;5043827;28;20064;-70
2022/05/24 05:53:37;;;;;;;4.80;1.65;;;;;;;25.67;52.21;99751.03;5048050;28;20086;-73
2022/05/24 05:56:04;;;;;;;4.70;1.63;;;;;;;25.66;52.26;99742.22;5049259;28;20029;-71
2022/05/24 05:58:31;;;;;;;2.60;1.90;;;;;;;25.65;52.13;99748.63;5047686;28;20039;-71
2022/05/24 06:00:56;;;;;;;1.90;1.50;;;;;;;25.66;51.99;99749.41;5044366;28;20021;-71
2022/05/24 06:03:22;;;;;;;2.70;2.15;;;;;;;25.65;52.23;99748.63;5047148;28;20111;-70
2022/05/24 06:05:51;;;;;;;2.97;1.77;;;;;;;25.66;52.16;99755.56;5048357;28;20065;-72
2022/05/24 06:08:17;;;;;;;4.88;1.60;;;;;;;25.67;52.25;99756.38;5044609;28;20044;-70
2022/05/24 06:10:43;;;;;;;4.05;1.85;;;;;;;25.67;52.18;99756.38;5044225;28;20143;-71
2022/05/24 06:13:08;;;;;;;4.10;1.70;;;;;;;25.68;52.12;99760.63;5042058;28;20278;-72
2022/05/24 06:15:35;;;;;;;4.05;2.22;;;;;;;25.69;52.40;99759.56;5046555;28;20108;-71
2022/05/24 06:18:01;;;;;;;3.28;2.22;;;;;;;25.71;53.06;99757.44;5045223;28;20021;-71
2022/05/24 06:20:29;;;;;;;6.18;3.00;;;;;;;25.74;53.41;99756.94;5047424;28;20036;-71
2022/05/24 06:22:57;;;;;;;5.95;2.92;;;;;;;25.76;53.63;99765.47;5047509;28;20041;-70
2022/05/24 06:25:27;;;;;;;5.47;3.28;;;;;;;25.78;53.99;99763.34;5047602;28;20061;-72
2022/05/24 06:27:54;;;;;;;6.68;3.25;;;;;;;25.83;54.07;99760.69;5044056;28;20047;-73
2022/05/24 06:30:21;;;;;;;4.22;2.75;;;;;;;25.84;53.98;99756.97;5047479;28;20082;-70
2022/05/24 06:32:47;;;;;;;6.32;2.47;;;;;;;25.82;53.93;99751.09;5045100;28;20039;-72
2022/05/24 06:35:13;;;;;;;3.40;2.92;;;;;;;25.82;54.10;99756.44;5048601;28;20511;-71
2022/05/24 06:37:40;;;;;;;8.82;2.10;;;;;;;25.82;54.10;99755.63;5044225;28;20045;-72
2022/05/24 06:40:09;;;;;;;5.70;2.55;;;;;;;25.81;53.96;99759.34;5045722;28;20435;-71
2022/05/24 06:42:34;;;;;;;8.35;2.58;;;;;;;25.82;54.10;99760.97;5028473;28;20032;-71
2022/05/24 06:45:01;;;;;;;5.80;2.78;;;;;;;25.81;54.28;99754.81;5034843;28;20021;-71
2022/05/24 06:47:27;;;;;;;4.85;2.10;;;;;;;25.82;54.31;99761.75;5046898;28;20041;-73
2022/05/24 06:49:53;;;;;;;3.03;1.92;;;;;;;25.82;54.21;99763.63;5043474;28;20025;-72
2022/05/24 06:52:19;;;;;;;8.95;2.10;;;;;;;25.82;54.31;99760.97;5043780;28;20037;-71
2022/05/24 06:54:44;;;;;;;5.43;2.58;;;;;;;25.82;53.83;99752.97;5038340;28;20047;-72
2022/05/24 06:57:09;;;;;;;5.20;2.25;;;;;;;25.81;54.21;99752.16;5043108;28;20075;-71
2022/05/24 07:02:25;;;;;;;4.43;1.77;;;;;;;25.81;54.15;99754.81;5033791;28;20059;-71
2022/05/24 07:05:01;;;;;;;4.60;2.15;;;;;;;25.81;54.14;99751.34;5038181;28;20029;-71
2022/05/24 07:07:29;;;;;;;6.13;2.13;;;;;;;25.79;54.39;99747.09;5043232;28;20035;-70
2022/05/24 07:09:54;;;;;;;7.80;2.38;;;;;;;25.79;54.24;99752.41;5046157;28;20058;-72
2022/05/24 07:12:21;;;;;;;8.15;2.42;;;;;;;25.80;54.21;99753.22;5043326;28;20037;-69
2022/05/24 07:14:47;;;;;;;7.78;2.50;;;;;;;25.80;54.58;99745.22;5045399;28;20141;-70
2022/05/24 07:17:14;;;;;;;10.73;3.08;;;;;;;25.76;54.03;99736.13;5041251;28;20029;-70
2022/05/24 07:19:39;;;;;;;15.65;3.90;;;;;;;25.70;53.44;99737.97;5046438;28;20032;-71
2022/05/24 07:22:06;;;;;;;9.93;2.65;;;;;;;25.67;53.20;99740.34;5044703;28;20021;-71
2022/05/24 07:24:32;;;;;;;6.22;2.40;;;;;;;25.63;52.86;99739.25;5040255;28;20039;-71
2022/05/24 07:26:57;;;;;;;7.10;2.65;;;;;;;25.61;53.11;99741.38;5041345;28;20025;-72
2022/05/24 07:29:23;;;;;;;9.27;3.38;;;;;;;25.62;53.35;99742.97;5041929;28;20033;-72
2022/05/24 07:31:49;;;;;;;7.93;3.78;;;;;;;25.64;53.43;99746.22;5045141;28;20444;-70
2022/05/24 07:34:15;;;;;;;18.17;4.90;;;;;;;25.63;53.45;99748.03;5042692;28;20051;-73
2022/05/24 07:36:41;;;;;;;11.63;2.72;;;;;;;25.61;53.01;99750.16;5039804;28;20035;-71
2022/05/24 07:39:07;;;;;;;10.00;2.40;;;;;;;25.60;52.78;99750.44;5046469;28;20503;-71
2022/05/24 07:47:03;;;;;;;10.00;2.50;;;;;;;25.60;52.41;99747.75;5033870;28;20051;-72
2022/05/24 07:49:28;;;;;;;9.38;2.97;;;;;;;25.62;52.51;99756.31;5045238;28;20033;-72
2022/05/24 07:51:54;;;;;;;8.80;2.03;;;;;;;25.61;52.36;99749.38;5034396;28;20535;-70
2022/05/24 07:54:19;;;;;;;10.27;2.80;;;;;;;25.59;52.10;99746.16;5045907;28;20051;-72
2022/05/24 07:56:45;;;;;;;7.53;2.00;;;;;;;25.58;52.09;99753.34;5044312;28;20028;-73
2022/05/24 07:59:10;;;;;;;7.35;2.13;;;;;;;25.59;52.21;99752.28;5039594;28;20091;-72
2022/05/24 08:01:36;;;;;;;6.82;2.25;;;;;;;25.62;51.99;99753.63;5047339;28;20028;-71
2022/05/24 08:04:03;;;;;;;7.40;1.75;;;;;;;25.65;52.00;99755.81;5047267;28;20485;-72
2022/05/24 08:06:28;;;;;;;3.42;1.63;;;;;;;25.66;52.10;99755.56;5062683;28;20021;-72
2022/05/24 08:08:54;;;;;;;4.07;1.58;;;;;;;25.68;52.14;99748.09;5047310;28;20032;-73
2022/05/24 08:11:19;;;;;;;3.65;1.55;;;;;;;25.69;52.28;99748.91;5047205;28;20117;-72
2022/05/24 08:13:45;;;;;;;4.03;1.83;;;;;;;25.70;52.08;99751.31;5047242;28;20068;-72
2022/05/24 08:16:10;;;;;;;3.10;1.80;;;;;;;25.71;52.16;99750.25;5044190;28;20404;-73
2022/05/24 08:18:36;;;;;;;7.05;2.42;;;;;;;25.73;52.15;99752.66;5047446;28;20021;-72
2022/05/24 08:21:01;;;;;;;2.90;1.92;;;;;;;25.76;52.01;99757.47;5045655;28;20112;-72
2022/05/24 08:23:27;;;;;;;5.05;1.95;;;;;;;25.78;52.01;99758.00;5045310;28;20464;-71
2022/05/24 08:25:54;;;;;;;4.05;1.75;;;;;;;25.79;51.77;99752.41;5050211;28;20120;-71
2022/05/24 08:28:19;;;;;;;3.40;1.80;;;;;;;25.81;51.71;99754.03;5050788;28;20060;-72
2022/05/24 08:30:46;;;;;;;2.20;1.30;;;;;;;25.81;51.72;99749.50;5050918;28;20029;-71
2022/05/24 08:33:14;;;;;;;4.53;1.40;;;;;;;25.82;51.76;99748.44;5049961;28;20033;-71
2022/05/24 08:35:42;;;;;;;4.20;1.70;;;;;;;25.82;51.76;99756.44;5048560;28;20025;-71
2022/05/24 08:38:09;;;;;;;3.05;1.20;;;;;;;25.82;51.79;99750.28;5050672;28;20064;-72
2022/05/24 08:40:38;;;;;;;5.47;1.95;;;;;;;25.82;51.57;99759.09;5050821;28;20025;-72
2022/05/24 08:43:30;;;;;;;4.93;1.80;;;;;;;25.80;51.48;99755.88;5050355;28;20106;-72
2022/05/24 08:48:51;;;;;;;3.03;1.58;;;;;;;25.78;51.73;99753.47;5050811;28;20115;-72
2022/05/24 08:51:23;;;;;;;4.13;1.73;;;;;;;25.77;51.54;99759.88;5044880;28;20033;-71
2022/05/24 08:53:52;;;;;;;3.63;1.75;;;;;;;25.77;51.58;99770.56;5050390;28;20060;-72
2022/05/24 08:56:29;;;;;;;3.92;1.70;;;;;;;25.77;51.54;99761.75;5047430;28;20025;-72
2022/05/24 08:59:09;;;;;;;2.45;1.17;;;;;;;25.75;51.56;99759.34;5030909;28;20025;-72
2022/05/24 09:01:35;;;;;;;2.20;1.27;;;;;;;25.77;51.57;99756.41;5030827;28;20049;-71
2022/05/24 09:04:06;;;;;;;5.25;1.48;;;;;;;25.77;51.37;99756.41;5032321;28;20029;-72
2022/05/24 09:06:54;;;;;;;4.97;1.40;;;;;;;25.78;51.42;99755.34;5050381;28;20255;-71
2022/05/24 09:09:47;;;;;;;2.28;0.85;;;;;;;25.76;51.15;99749.47;5050345;28;20528;-72
2022/05/24 09:12:34;;;;;;;4.13;1.65;;;;;;;25.78;51.36;99750.00;5049818;28;20115;-72
2022/05/24 09:15:07;;;;;;;5.38;1.27;;;;;;;25.78;51.22;99750.81;5048133;28;20024;-71
2022/05/24 09:17:48;;;;;;;4.15;1.30;;;;;;;25.80;51.30;99745.22;5050042;28;20346;-71
2022/05/24 09:20:33;;;;;;;2.85;1.60;;;;;;;25.81;51.06;99744.16;5049293;28;20071;-71
2022/05/24 09:23:16;;;;;;;2.47;1.33;;;;;;;25.81;51.12;99740.69;5049630;28;20041;-71
2022/05/24 09:26:02;;;;;;;1.80;1.10;;;;;;;25.80;51.08;99737.22;5049005;28;20064;-72
2022/05/24 09:28:42;;;;;;;;;;;;;;;25.74;51.25;99735.59;5050507;28;20036;-71
2022/05/24 09:31:09;;;;;;;4.75;1.05;;;;;;;25.79;51.30;99724.94;5049733;28;19960;-72
2022/05/24 09:33:40;;;;;;;2.50;1.10;;;;;;;25.81;50.90;99720.13;5049927;28;20025;-71
2022/05/24 09:36:05;;;;;;;3.38;1.45;;;;;;;25.84;51.10;99730.28;5048517;28;20033;-72
2022/05/24 09:38:38;;;;;;;5.38;1.70;;;;;;;25.85;51.10;99731.91;5048273;28;20483;-71
2022/05/24 09:41:18;;;;;;;1.50;1.00;;;;;;;25.85;51.12;99731.91;5049729;28;20033;-71
2022/05/24 09:43:58;;;;;;;4.30;1.48;;;;;;;25.85;51.17;99723.88;5049729;28;20052;-73
2022/05/24 09:46:26;;;;;;;2.90;0.85;;;;;;;25.88;51.08;99731.38;5048620;28;20084;-72
2022/05/24 09:49:02;;;;;;;4.35;1.48;;;;;;;25.87;50.88;99729.78;5050888;28;20025;-71
2022/05/24 09:51:41;;;;;;;4.45;1.35;;;;;;;25.88;50.98;99731.38;5049804;28;20072;-72
2022/05/24 09:54:15;;;;;;;4.00;1.17;;;;;;;25.89;51.10;99730.31;5050080;28;20094;-73
2022/05/24 09:56:41;;;;;;;5.25;1.45;;;;;;;25.90;50.94;99729.25;5049645;28;20040;-72
2022/05/24 09:59:20;;;;;;;5.50;1.55;;;;;;;25.90;50.95;99728.44;5050223;28;20122;-72
2022/05/24 10:01:49;;;;;;;2.58;1.30;;;;;;;25.91;50.94;99722.84;5049282;28;20025;-71
2022/05/24 10:04:27;;;;;;;4.25;1.67;;;;;;;25.93;51.02;99733.25;5048786;28;20116;-73
2022/05/24 10:07:02;;;;;;;6.20;1.63;;;;;;;25.91;50.80;99720.16;5047421;28;20251;-72
2022/05/24 10:09:53;;;;;;;3.13;1.67;;;;;;;25.89;50.87;99727.63;5049474;28;20029;-71
2022/05/24 10:12:48;;;;;;;2.75;1.15;;;;;;;25.90;51.09;99728.44;5049101;28;20116;-71
2022/05/24 10:15:48;;;;;;;2.78;1.40;;;;;;;25.89;50.75;99721.50;5048845;28;20102;-72
2022/05/24 10:18:25;;;;;;;4.68;1.23;;;;;;;25.89;50.86;99718.84;5028685;28;20119;-72
2022/05/24 10:21:25;;;;;;;4.57;1.48;;;;;;;25.88;50.73;99722.56;5034299;28;20546;-72
2022/05/24 10:24:24;;;;;;;4.53;1.27;;;;;;;25.85;50.68;99721.22;5047817;28;20047;-72
2022/05/24 10:27:24;;;;;;;4.28;1.42;;;;;;;25.88;50.41;99720.69;5048766;28;20033;-72
2022/05/24 10:30:01;;;;;;;3.67;1.48;;;;;;;25.92;50.27;99723.66;5047586;28;20374;-72
2022/05/24 10:39:05;;;;;;;6.85;1.08;;;;;;;25.93;49.91;99714.56;5047078;28;20630;-71
2022/05/24 10:42:08;;;;;;;3.50;1.08;;;;;;;25.94;49.94;99722.31;5048687;28;20060;-72
2022/05/24 10:44:43;;;;;;;3.55;1.23;;;;;;;25.93;50.12;99728.72;5047011;28;20401;-72
2022/05/24 10:47:24;;;;;;;2.08;1.20;;;;;;;25.93;49.89;99723.38;5048630;28;20025;-71
2022/05/24 10:49:56;;;;;;;4.57;1.27;;;;;;;25.95;49.77;99726.59;5048216;28;20477;-71
2022/05/24 10:52:35;;;;;;;2.33;1.10;;;;;;;25.95;49.83;99715.91;5047138;28;20029;-72
2022/05/24 10:55:21;;;;;;;2.90;1.10;;;;;;;25.94;49.69;99714.31;5047972;28;20083;-72
2022/05/24 10:58:00;;;;;;;3.67;1.08;;;;;;;25.95;49.60;99709.78;5048335;28;20029;-71
2022/05/24 11:00:51;;;;;;;3.22;1.25;;;;;;;25.96;49.62;99711.38;5048058;28;20040;-72
2022/05/24 11:03:28;;;;;;;4.53;1.30;;;;;;;25.96;49.34;99711.38;5046045;28;20064;-71
2022/05/24 11:06:23;;;;;;;2.63;1.38;;;;;;;25.96;49.25;99706.84;5047859;28;20657;-71
2022/05/24 11:09:02;;;;;;;1.90;1.05;;;;;;;25.96;49.53;99711.38;5047664;28;20031;-72
2022/05/24 11:11:56;;;;;;;3.03;1.70;;;;;;;25.98;49.50;99706.59;5047849;28;20766;-72
2022/05/24 11:14:36;;;;;;;4.90;1.60;;;;;;;25.98;49.29;99698.56;5023940;28;20053;-71
2022/05/24 11:17:02;;;;;;;3.67;1.17;;;;;;;26.01;49.19;99704.16;5027722;28;20029;-72
2022/05/24 11:19:36;;;;;;;2.60;1.50;;;;;;;26.03;49.27;99703.91;5027809;28;20091;-72
2022/05/24 11:22:20;;;;;;;4.13;1.25;;;;;;;26.01;49.07;99706.81;5028034;28;20429;-72
2022/05/24 11:25:15;;;;;;;1.92;1.05;;;;;;;26.03;49.23;99707.38;5041851;28;20640;-71
2022/05/24 11:28:01;;;;;;;3.78;1.00;;;;;;;26.02;48.99;99710.31;5044314;28;20299;-72
2022/05/24 11:30:30;;;;;;;1.88;1.00;;;;;;;26.04;48.81;99703.63;5046597;28;20438;-73
2022/05/24 11:33:09;;;;;;;3.30;0.98;;;;;;;26.08;49.45;99703.91;5045865;28;20033;-72
2022/05/24 11:35:39;;;;;;;16.88;4.30;;;;;;;26.26;49.94;99707.94;5047700;28;20142;-71
2022/05/24 11:38:21;;;;;;;52.25;15.18;;;;;;;26.43;51.96;99701.31;5046662;28;20025;-72
2022/05/24 11:41:25;;;;;;;204.00;58.83;;;;;;;26.60;55.76;99697.56;5047687;28;20075;-71
2022/05/24 11:43:50;;;;;;;72.80;24.77;;;;;;;26.58;53.60;99694.34;5047142;28;20029;-71
2022/05/24 11:46:34;;;;;;;48.35;13.82;;;;;;;26.49;51.93;99694.09;5047355;28;20094;-71
2022/05/24 11:49:06;;;;;;;32.92;10.30;;;;;;;26.45;51.49;99693.03;5046435;28;20141;-72
2022/05/24 11:51:50;;;;;;;20.15;7.97;;;;;;;26.39;51.03;99691.44;5045033;28;20124;-73
2022/05/24 11:54:19;;;;;;;23.85;7.07;;;;;;;26.36;50.62;99686.63;5044257;28;20135;-71
2022/05/24 11:57:03;;;;;;;14.85;5.55;;;;;;;26.32;50.14;99682.88;5047239;28;20492;-72
2022/05/24 11:59:40;;;;;;;10.98;2.92;;;;;;;26.29;49.51;99688.72;5048199;28;20044;-71
2022/05/24 12:02:22;;;;;;;12.98;3.25;;;;;;;26.26;49.68;99683.91;5051460;28;20029;-72
2022/05/24 12:08:22;;;;;;;7.22;1.75;;;;;;;26.21;49.28;99675.91;5050030;28;20171;-71
2022/05/24 12:11:02;;;;;;;6.43;1.75;;;;;;;26.22;49.46;99685.50;5050767;28;20039;-72
2022/05/24 12:13:33;;;;;;;7.38;1.92;;;;;;;26.22;49.58;99688.19;5047033;28;20556;-74
2022/05/24 12:16:23;;;;;;;3.33;1.70;;;;;;;26.20;49.17;99677.78;5049767;28;20025;-72
2022/05/24 12:19:02;;;;;;;3.03;1.40;;;;;;;26.19;48.42;99683.38;5049424;28;20123;-72
2022/05/24 12:21:57;;;;;;;5.18;1.23;;;;;;;26.22;48.49;99680.16;5047353;28;20087;-72
2022/05/24 12:24:30;;;;;;;6.00;1.30;;;;;;;26.23;48.76;99679.09;5021919;28;20055;-72